Dirección General De Aeronáutica Civil

Dirección Meteorológica de Chile - Servicios Climáticos

Informe General de Control de Calidad de la Estación

Listado de niveles de control de calidad para algunos parámetros
Estación Punta Corona faro (410007)
Fecha de Revisión de los datos :

Elementos

Registros Niveles de Control Total
Nivel 0 Nivel 1 Nivel 2 Nivel 3 Errores Porcentaje
01 Temperatura del Aire Seco 10.714 1 0.01 % 0 . 0 . 0 . 1 0.01 %
02 Temperatura de Rocío 10.713 0 . 0 . 0 . 0 . 0 0.00 %
03 Humedad Relativa del Aire 10.713 0 . 0 . 0 . 0 . 0 0.00 %
04 Temperatura Máxima PM 1.831 0 . 0 . 12 0.66 % 0 . 12 0.66 %
05 Temperatura Mínima AM 1.825 0 . 0 . 16 0.88 % 0 . 16 0.88 %
06 Viento a 10 m. de Altura 10.714 0 . 0 . 0 . 0 . 0 0.00 %
07 Agua Caida, Acumulada 6 Horas 5.360 0 . 133 2.48 % 0 . 0 . 133 2.48 %
08 Presión Atm. a Nivel de Estación (QFE) 10.714 0 . 5 0.05 % 0 . 0 . 5 0.05 %
09 Presión Atm. a Nivel Medio del Mar (QFF) 10.714 0 . 0 . 0 . 0 . 0 0.00 %
10 Tiempo Pasado Sinóptico 10.709 0 . 0 . 0 . 0 . 0 0.00 %
11 Tiempo Presente Sinóptico 10.709 0 . 8 0.07 % 0 . 0 . 8 0.07 %

Totales

94.716 . 0.0011 % . 0.1541 % . 0.0296 % . 0.0000 % 175 0.1848 %

Detalle de Errores Recientes

Fecha del Dato Descripción Información Error Fecha Ingreso
2024-01-01 18:00:00 (ts - td > 5.0) y ((ww >= 40 y ww <= 49)) 45 2024-01-01 19:39:00
2024-01-01 18:00:00 (ts - td > 5.0) y ((ww >= 40 y ww <= 49)) 45 2024-01-01 19:39:00
Total de Errores Recientes 2

Detalle de Errores Encontrados

Nivel Fecha del Dato Descripción Información Error Fecha Ingreso
0 2022-09-09 15:00:00 Ts (Temperatura Del Aire) debe ser numérico, entre -50.0 y 50.0 86.0 2022-09-09 18:35:00
Errores del Nivel 1
Nivel Fecha del Dato Descripción Información Error Fecha Ingreso
1 2020-10-07 15:00:00 ts > 5.0 y ((ww >= 70 y ww <= 79) || (ww >= 85 y ww <= 88))) 87 2020-10-07 15:08:00
1 2021-01-10 21:00:00 ts > 5.0 y ((ww >= 70 y ww <= 79) || (ww >= 85 y ww <= 88))) 86 2021-01-10 21:09:00
1 2023-02-24 21:00:00 ts > 3.0 y ( (ww >= 48 y ww <= 49) o (ww >= 56 y ww <= 57) o (ww >=66 y ww <= 67)) 67 2023-02-24 23:42:00
1 2023-08-21 15:00:00 ts > 5.0 y ((ww >= 70 y ww <= 79) || (ww >= 85 y ww <= 88))) 88 2023-08-21 14:56:00
1 2023-09-14 03:00:00 ts > 3.0 y ( (ww >= 48 y ww <= 49) o (ww >= 56 y ww <= 57) o (ww >=66 y ww <= 67)) 66 2023-09-14 03:32:00
1 2023-10-29 12:00:00 ts > 5.0 y ((ww >= 70 y ww <= 79) || (ww >= 85 y ww <= 88))) 87 2023-10-29 12:07:00
1 2024-01-01 18:00:00 (ts - td > 5.0) y ((ww >= 40 y ww <= 49)) 45 2024-01-01 19:39:00
1 2024-01-01 18:00:00 (ts - td > 5.0) y ((ww >= 40 y ww <= 49)) 45 2024-01-01 19:39:00
1 2020-06-22 12:00:00 rrr = s/p y WW = 21 w1=6 w2=6 0.0 2020-06-22 12:17:00
1 2020-06-24 00:00:00 rrr = 0.3 y WW = 1 w1=1 w2=0 0.3 2020-06-24 00:04:00
1 2020-06-25 18:00:00 rrr = 2.1 y WW = 2 w1=2 w2=2 2.1 2020-06-25 18:30:00
1 2020-06-29 12:00:00 rrr = 4.3 y WW = 2 w1=2 w2=2 4.3 2020-06-29 12:39:00
1 2020-07-02 06:00:00 rrr = s/p y WW = 2 w1=8 w2=2 0.0 2020-07-02 05:58:00
1 2020-07-04 00:00:00 rrr = s/p y WW = 21 w1=6 w2=6 0.0 2020-07-04 00:04:00
1 2020-07-04 12:00:00 rrr = 3.0 y WW = 2 w1=2 w2=2 3.0 2020-07-04 12:15:00
1 2020-07-08 18:00:00 rrr = 1.0 y WW = 3 w1=2 w2=2 1.0 2020-07-08 18:18:00
1 2020-07-14 00:00:00 rrr = 1.0 y WW = 1 w1=0 w2=0 1.0 2020-07-14 03:15:00
1 2020-07-15 12:00:00 rrr = 0.2 y WW = 2 w1=2 w2=2 0.2 2020-07-15 12:21:00
1 2020-07-26 18:00:00 rrr = 0.1 y WW = 3 w1=1 w2=0 0.1 2020-07-26 18:24:00
1 2020-08-07 06:00:00 rrr = s/p y WW = 21 w1=6 w2=2 0.0 2020-08-07 06:12:00
1 2020-08-15 18:00:00 rrr = 1.1 y WW = 2 w1=2 w2=1 1.1 2020-08-15 17:58:00
1 2020-08-17 18:00:00 rrr = s/p y WW = 53 w1=5 w2=5 0.0 2020-08-17 18:20:00
1 2020-08-21 12:00:00 rrr = trazas y WW = 2 w1=0 w2=0 0.0 2020-08-21 17:45:00
1 2020-08-23 18:00:00 rrr = s/p y WW = 2 w1=6 w2=2 0.0 2020-08-23 18:22:00
1 2020-08-29 00:00:00 rrr = 0.6 y WW = 2 w1=0 w2=0 0.6 2020-08-29 00:02:00
1 2020-08-29 06:00:00 rrr = s/p y WW = 25 w1=2 w2=2 0.0 2020-08-29 06:06:00
1 2020-09-08 12:00:00 rrr = s/p y WW = 2 w1=6 w2=2 0.0 2020-09-08 11:51:00
1 2020-09-17 06:00:00 rrr = s/p y WW = 2 w1=5 w2=2 0.0 2020-09-17 06:07:00
1 2020-10-08 12:00:00 rrr = s/p y WW = 10 w1=5 w2=2 0.0 2020-10-08 11:57:00
1 2020-10-09 06:00:00 rrr = 0.2 y WW = 3 w1=4 w2=4 0.2 2020-10-09 05:56:00
1 2020-10-09 12:00:00 rrr = 0.4 y WW = 2 w1=2 w2=2 0.4 2020-10-09 11:42:00
1 2020-10-09 18:00:00 rrr = 0.2 y WW = 2 w1=2 w2=0 0.2 2020-10-09 18:08:00
1 2020-10-10 06:00:00 rrr = 4.0 y WW = 1 w1=2 w2=2 4.0 2020-10-10 09:00:00
1 2020-10-10 12:00:00 rrr = 1.5 y WW = 2 w1=0 w2=0 1.5 2020-10-10 12:54:00
1 2020-10-25 06:00:00 rrr = s/p y WW = 1 w1=8 w2=1 0.0 2020-10-25 06:40:00
1 2020-10-25 12:00:00 rrr = 1.8 y WW = 2 w1=0 w2=0 1.8 2020-10-25 12:11:00
1 2020-10-28 06:00:00 rrr = 0.7 y WW = 2 w1=2 w2=1 0.7 2020-10-28 07:25:00
1 2020-11-02 12:00:00 rrr = trazas y WW = 2 w1=0 w2=0 0.0 2020-11-02 12:04:00
1 2020-11-14 12:00:00 rrr = s/p y WW = 20 w1=2 w2=2 0.0 2020-11-14 11:59:00
1 2020-12-06 18:00:00 rrr = trazas y WW = 2 w1=4 w2=0 0.0 2020-12-06 17:54:00
1 2020-12-14 12:00:00 rrr = s/p y WW = 1 w1=5 w2=5 0.0 2020-12-14 11:54:00
1 2020-12-24 12:00:00 rrr = s/p y WW = 61 w1=6 w2=2 0.0 2020-12-24 12:19:00
1 2020-12-28 12:00:00 rrr = trazas y WW = 2 w1=0 w2=0 0.0 2020-12-28 11:46:00
1 2020-12-29 12:00:00 rrr = s/p y WW = 60 w1=6 w2=6 0.0 2020-12-29 12:00:00
1 2021-01-10 00:00:00 rrr = s/p y WW = 50 w1=8 w2=8 0.0 2021-01-10 00:14:00
1 2021-01-20 00:00:00 rrr = trazas y WW = 2 w1=0 w2=0 0.0 2021-01-20 00:25:00
1 2021-01-25 12:00:00 rrr = 2.0 y WW = 2 w1=2 w2=2 2.0 2021-01-25 12:15:00
1 2021-01-28 00:00:00 rrr = s/p y WW = 25 w1=8 w2=2 0.0 2021-01-27 23:50:00
1 2021-02-12 06:00:00 rrr = s/p y WW = 2 w1=5 w2=2 0.0 2021-02-12 07:39:00
1 2021-02-18 18:00:00 rrr = s/p y WW = 2 w1=6 w2=2 0.0 2021-02-18 21:06:00
1 2021-02-25 00:00:00 rrr = trazas y WW = 2 w1=0 w2=0 0.0 2021-02-25 00:12:00
1 2021-02-26 12:00:00 rrr = s/p y WW = 10 w1=5 w2=4 0.0 2021-02-26 11:46:00
1 2021-03-06 18:00:00 rrr = s/p y WW = 51 w1=5 w2=2 0.0 2021-03-06 18:08:00
1 2021-03-07 06:00:00 rrr = s/p y WW = 46 w1=5 w2=2 0.0 2021-03-07 06:28:00
1 2021-03-23 12:00:00 rrr = s/p y WW = 24 w1=5 w2=2 0.0 2021-03-23 11:41:00
1 2021-04-11 00:00:00 rrr = s/p y WW = 60 w1=6 w2=6 0.0 2021-04-11 00:52:00
1 2021-04-18 06:00:00 rrr = s/p y WW = 21 w1=5 w2=2 0.0 2021-04-18 06:14:00
1 2021-05-03 06:00:00 rrr = s/p y WW = 2 w1=8 w2=2 0.0 2021-05-03 05:57:00
1 2021-05-20 18:00:00 rrr = 0.3 y WW = 2 w1=2 w2=2 0.3 2021-05-20 18:23:00
1 2021-05-22 06:00:00 rrr = s/p y WW = 1 w1=8 w2=2 0.0 2021-05-22 09:05:00
1 2021-05-26 00:00:00 rrr = s/p y WW = 6 w1=6 w2=6 0.0 2021-05-26 01:31:00
1 2021-06-06 06:00:00 rrr = s/p y WW = 2 w1=5 w2=2 0.0 2021-06-06 05:52:00
1 2021-06-17 06:00:00 rrr = trazas y WW = 2 w1=0 w2=0 0.0 2021-06-17 05:50:00
1 2021-06-24 00:00:00 rrr = s/p y WW = 2 w1=8 w2=2 0.0 2021-06-24 00:20:00
1 2021-07-09 06:00:00 rrr = 0.4 y WW = 1 w1=2 w2=2 0.4 2021-07-09 06:55:00
1 2021-07-11 12:00:00 rrr = 0.2 y WW = 3 w1=2 w2=2 0.2 2021-07-11 11:57:00
1 2021-07-12 12:00:00 rrr = 0.1 y WW = 1 w1=2 w2=0 0.1 2021-07-12 12:05:00
1 2021-07-15 00:00:00 rrr = 0.2 y WW = 1 w1=0 w2=0 0.2 2021-07-15 00:23:00
1 2021-07-16 18:00:00 rrr = s/p y WW = 25 w1=8 w2=8 0.0 2021-07-16 17:59:00
1 2021-07-17 00:00:00 rrr = s/p y WW = 1 w1=8 w2=0 0.0 2021-07-17 00:04:00
1 2021-07-25 12:00:00 rrr = s/p y WW = 1 w1=6 w2=2 0.0 2021-07-25 12:09:00
1 2021-08-03 06:00:00 rrr = s/p y WW = 3 w1=5 w2=2 0.0 2021-08-03 12:15:00
1 2021-08-05 18:00:00 rrr = 5.0 y WW = 0 w1=0 w2=0 5.0 2021-08-05 18:02:00
1 2021-08-06 18:00:00 rrr = 1.0 y WW = 1 w1=2 w2=2 1.0 2021-08-06 18:06:00
1 2021-08-19 00:00:00 rrr = 0.7 y WW = 2 w1=2 w2=2 0.7 2021-08-19 00:28:00
1 2021-08-22 06:00:00 rrr = s/p y WW = 1 w1=6 w2=2 0.0 2021-08-22 06:12:00
1 2021-08-23 06:00:00 rrr = 0.1 y WW = 2 w1=0 w2=0 0.1 2021-08-23 06:27:00
1 2021-08-26 18:00:00 rrr = 0.2 y WW = 1 w1=0 w2=0 0.2 2021-08-26 18:37:00
1 2021-08-30 18:00:00 rrr = 0.6 y WW = 1 w1=2 w2=2 0.6 2021-08-30 18:19:00
1 2021-08-31 06:00:00 rrr = s/p y WW = 53 w1=5 w2=4 0.0 2021-08-31 05:58:00
1 2021-09-06 18:00:00 rrr = s/p y WW = 1 w1=6 w2=2 0.0 2021-09-06 20:30:00
1 2021-09-10 18:00:00 rrr = 0.2 y WW = 2 w1=2 w2=2 0.2 2021-09-10 18:16:00
1 2021-09-16 06:00:00 rrr = 0.3 y WW = 2 w1=2 w2=2 0.3 2021-09-16 05:48:00
1 2021-09-16 12:00:00 rrr = s/p y WW = 50 w1=5 w2=5 0.0 2021-09-16 12:27:00
1 2021-09-17 00:00:00 rrr = s/p y WW = 21 w1=5 w2=2 0.0 2021-09-17 00:13:00
1 2021-09-17 12:00:00 rrr = s/p y WW = 80 w1=8 w2=8 0.0 2021-09-17 12:00:00
1 2021-09-17 18:00:00 rrr = s/p y WW = 3 w1=8 w2=2 0.0 2021-09-17 18:12:00
1 2021-09-22 12:00:00 rrr = s/p y WW = 51 w1=5 w2=2 0.0 2021-09-22 11:49:00
1 2021-09-30 18:00:00 rrr = s/p y WW = 3 w1=5 w2=2 0.0 2021-09-30 17:59:00
1 2021-10-02 06:00:00 rrr = s/p y WW = 80 w1=8 w2=8 0.0 2021-10-02 06:15:00
1 2021-10-02 12:00:00 rrr = s/p y WW = 25 w1=8 w2=8 0.0 2021-10-02 12:11:00
1 2021-10-02 18:00:00 rrr = s/p y WW = 1 w1=8 w2=0 0.0 2021-10-02 18:09:00
1 2021-10-14 18:00:00 rrr = s/p y WW = 2 w1=8 w2=1 0.0 2021-10-14 17:55:00
1 2021-10-16 12:00:00 rrr = s/p y WW = 2 w1=5 w2=2 0.0 2021-10-16 11:49:00
1 2021-10-25 12:00:00 rrr = 1.4 y WW = 2 w1=2 w2=2 1.4 2021-10-25 11:52:00
1 2021-10-26 18:00:00 rrr = 0.1 y WW = 2 w1=2 w2=2 0.1 2021-10-26 18:26:00
1 2021-10-27 00:00:00 rrr = 0.1 y WW = 1 w1=2 w2=2 0.1 2021-10-27 01:05:00
1 2021-10-30 00:00:00 rrr = s/p y WW = 1 w1=8 w2=2 0.0 2021-10-30 00:21:00
1 2021-11-08 00:00:00 rrr = s/p y WW = 45 w1=5 w2=2 0.0 2021-11-08 00:02:00
1 2021-11-22 06:00:00 rrr = s/p y WW = 2 w1=5 w2=2 0.0 2021-11-22 06:05:00
1 2022-01-02 06:00:00 rrr = s/p y WW = 20 w1=6 w2=2 0.0 2022-01-02 06:01:00
1 2022-01-16 18:00:00 rrr = s/p y WW = 3 w1=8 w2=1 0.0 2022-01-16 17:51:00
1 2022-01-23 18:00:00 rrr = s/p y WW = 2 w1=5 w2=2 0.0 2022-01-23 18:01:00
1 2022-02-27 18:00:00 rrr = s/p y WW = 2 w1=8 w2=2 0.0 2022-02-27 18:08:00
1 2022-03-01 12:00:00 rrr = s/p y WW = 63 w1=6 w2=6 0.0 2022-03-01 11:49:00
1 2022-03-03 12:00:00 rrr = 0.2 y WW = 2 w1=4 w2=2 0.2 2022-03-03 11:40:00
1 2022-03-04 00:00:00 rrr = s/p y WW = 2 w1=5 w2=0 0.0 2022-03-03 23:44:00
1 2022-03-05 18:00:00 rrr = s/p y WW = 2 w1=5 w2=2 0.0 2022-03-05 18:00:00
1 2022-03-21 18:00:00 rrr = s/p y WW = 1 w1=5 w2=2 0.0 2022-03-21 18:28:00
1 2022-03-28 12:00:00 rrr = s/p y WW = 64 w1=8 w2=2 0.0 2022-03-28 11:47:00
1 2022-04-02 12:00:00 rrr = s/p y WW = 51 w1=5 w2=0 0.0 2022-04-02 12:15:00
1 2022-04-03 00:00:00 rrr = s/p y WW = 2 w1=8 w2=2 0.0 2022-04-03 01:36:00
1 2022-04-07 00:00:00 rrr = s/p y WW = 20 w1=5 w2=4 0.0 2022-04-07 03:03:00
1 2022-04-09 12:00:00 rrr = s/p y WW = 62 w1=6 w2=0 0.0 2022-04-09 12:17:00
1 2022-04-21 06:00:00 rrr = s/p y WW = 65 w1=6 w2=6 0.0 2022-04-21 05:59:00
1 2022-04-23 12:00:00 rrr = s/p y WW = 81 w1=8 w2=0 0.0 2022-04-23 12:13:00
1 2022-04-28 00:00:00 rrr = s/p y WW = 2 w1=8 w2=2 0.0 2022-04-28 02:56:00
1 2022-05-08 12:00:00 rrr = s/p y WW = 1 w1=6 w2=2 0.0 2022-05-08 11:53:00
1 2022-05-23 12:00:00 rrr = s/p y WW = 2 w1=8 w2=2 0.0 2022-05-23 12:45:00
1 2022-09-08 18:00:00 rrr = s/p y WW = 2 w1=5 w2=2 0.0 2022-09-08 18:38:00
1 2022-10-19 18:00:00 rrr = 0.1 y WW = 10 w1=4 w2=4 0.1 2022-10-19 18:48:00
1 2022-10-28 12:00:00 rrr = 0.3 y WW = 15 w1=2 w2=2 0.3 2022-10-28 12:38:00
1 2022-10-31 12:00:00 rrr = 0.1 y WW = 2 w1=0 w2=0 0.1 2022-10-31 13:21:00
1 2022-11-13 00:00:00 rrr = s/p y WW = 2 w1=6 w2=2 0.0 2022-11-13 02:04:00
1 2022-12-24 00:00:00 rrr = 0.9 y WW = 3 w1=2 w2=0 0.9 2022-12-24 00:26:00
1 2023-02-12 00:00:00 rrr = s/p y WW = 63 w1=2 w2=2 0.0 2023-02-12 00:15:00
1 2023-02-24 18:00:00 rrr = s/p y WW = 20 w1=2 w2=2 0.0 2023-02-24 18:25:00
1 2023-02-25 12:00:00 rrr = 3.3 y WW = 2 w1=2 w2=1 3.3 2023-02-25 12:02:00
1 2023-02-25 18:00:00 rrr = 0.1 y WW = 1 w1=2 w2=1 0.1 2023-02-25 17:56:00
1 2023-03-10 00:00:00 rrr = 2.0 y WW = 2 w1=2 w2=2 2.0 2023-03-10 00:23:00
1 2023-03-28 00:00:00 rrr = 4.5 y WW = 2 w1=2 w2=2 4.5 2023-03-28 00:07:00
1 2023-05-25 18:00:00 rrr = 20.0 y WW = 10 w1=2 w2=2 20.0 2023-05-25 18:09:00
1 2023-06-04 12:00:00 rrr = 0.5 y WW = 1 w1=2 w2=0 0.5 2023-06-04 11:59:00
1 2023-06-27 18:00:00 rrr = 4.5 y WW = 3 w1=2 w2=2 4.5 2023-06-27 17:59:00
1 2023-07-05 18:00:00 rrr = 0.5 y WW = 2 w1=2 w2=0 0.5 2023-07-05 18:01:00
1 2023-07-19 18:00:00 rrr = s/p y WW = 10 w1=5 w2=4 0.0 2023-07-19 18:01:00
1 2023-07-25 06:00:00 rrr = 1.5 y WW = 2 w1=0 w2=0 1.5 2023-07-25 05:55:00
1 2023-07-26 18:00:00 rrr = s/p y WW = 20 w1=2 w2=2 0.0 2023-07-26 19:52:00
1 2023-09-07 12:00:00 rrr = 1.5 y WW = 1 w1=2 w2=2 1.5 2023-09-07 13:05:00
1 2023-11-20 12:00:00 rrr = 0.5 y WW = 1 w1=2 w2=2 0.5 2023-11-20 11:53:00
1 2023-11-25 12:00:00 rrr = 0.1 y WW = 2 w1=2 w2=2 0.1 2023-11-25 11:39:00
1 2021-08-21 12:00:00 qfe debe ser menor o igual a qff 988.0 - 951.1 2021-08-21 12:09:00
1 2022-02-07 18:00:00 qfe debe ser menor o igual a qff 1016.3 - 1009.2 2022-02-07 17:53:00
1 2022-11-21 03:00:00 qfe debe ser menor o igual a qff 1019.0 - 1016.1 2022-11-21 03:35:00
1 2023-06-12 21:00:00 qfe debe ser menor o igual a qff 1025.0 - 1023.1 2023-06-12 21:01:00
1 2023-10-11 12:00:00 qfe debe ser menor o igual a qff 1024.3 - 1021.3 2023-10-11 11:51:00
Errores del Nivel 146
Nivel Fecha del Dato Descripción Información Error Fecha Ingreso
2 2021-02-19 00:00:00 Temperatura 16.6 del 18-02-2021 18:00, Mayor que la Máxima 14.8 19-02-2021 00:00 16.6 -- 14.8 2021-02-19 00:27:00
2 2022-02-19 00:00:00 Temperatura 17.2 del 18-02-2022 18:00, Mayor que la Máxima 17.0 19-02-2022 00:00 17.2 -- 17.0 2022-02-19 01:09:00
2 2022-03-21 00:00:00 Temperatura 12.4 del 20-03-2022 21:00, Mayor que la Máxima 12.0 21-03-2022 00:00 12.4 -- 12.0 2022-03-21 02:46:00
2 2022-04-22 00:00:00 Temperatura 13.4 del 21-04-2022 15:00, Mayor que la Máxima 13.0 22-04-2022 00:00 13.4 -- 13.0 2022-04-22 03:01:00
2 2022-05-03 00:00:00 Temperatura 10.2 del 02-05-2022 15:00, Mayor que la Máxima 10.0 03-05-2022 00:00 10.2 -- 10.0 2022-05-03 00:46:00
2 2022-05-11 00:00:00 Temperatura 13.2 del 10-05-2022 18:00, Mayor que la Máxima 13.0 11-05-2022 00:00 13.2 -- 13.0 2022-05-11 00:18:00
2 2022-05-23 00:00:00 Temperatura 10.2 del 22-05-2022 18:00, Mayor que la Máxima 10.0 23-05-2022 00:00 10.2 -- 10.0 2022-05-23 03:38:00
2 2022-09-10 00:00:00 Temperatura 86.0 del 09-09-2022 15:00, Mayor que la Máxima 11.8 10-09-2022 00:00 86.0 -- 11.8 2022-09-10 03:08:00
2 2022-09-18 00:00:00 Temperatura 10.2 del 17-09-2022 18:00, Mayor que la Máxima 10.0 18-09-2022 00:00 10.2 -- 10.0 2022-09-18 02:41:00
2 2022-10-04 00:00:00 Temperatura 12.2 del 03-10-2022 15:00, Mayor que la Máxima 12.0 04-10-2022 00:00 12.2 -- 12.0 2022-10-04 01:13:00
2 2022-11-01 00:00:00 Temperatura 13.2 del 31-10-2022 18:00, Mayor que la Máxima 13.0 01-11-2022 00:00 13.2 -- 13.0 2022-11-01 00:17:00
2 2023-08-18 00:00:00 Temperatura 8.8 del 17-08-2023 15:00, Mayor que la Máxima 8.5 18-08-2023 00:00 8.8 -- 8.5 2023-08-18 00:32:00
2 2021-02-21 12:00:00 Temperatura 11.4 del 21-02-2021 03:00, Menor que la Mínima 11.5 21-02-2021 12:00 11.4 -- 11.5 2021-02-21 11:58:00
2 2021-11-17 12:00:00 Temperatura 8.8 del 17-11-2021 06:00, Menor que la Mínima 9.2 17-11-2021 12:00 8.8 -- 9.2 2021-11-17 13:18:00
2 2022-02-09 12:00:00 Temperatura 11.4 del 09-02-2022 09:00, Menor que la Mínima 11.5 09-02-2022 12:00 11.4 -- 11.5 2022-02-09 12:02:00
2 2022-03-21 12:00:00 Temperatura 11.4 del 21-03-2022 06:00, Menor que la Mínima 11.5 21-03-2022 12:00 11.4 -- 11.5 2022-03-21 11:41:00
2 2022-05-05 12:00:00 Temperatura 11.4 del 05-05-2022 06:00, Menor que la Mínima 11.6 05-05-2022 12:00 11.4 -- 11.6 2022-05-05 12:21:00
2 2022-05-24 12:00:00 Temperatura 7.0 del 24-05-2022 03:00, Menor que la Mínima 7.4 24-05-2022 12:00 7.0 -- 7.4 2022-05-24 12:16:00
2 2022-07-15 12:00:00 Temperatura 4.8 del 15-07-2022 03:00, Menor que la Mínima 5.0 15-07-2022 12:00 4.8 -- 5.0 2022-07-15 12:11:00
2 2022-08-17 12:00:00 Temperatura 5.1 del 17-08-2022 06:00, Menor que la Mínima 5.4 17-08-2022 12:00 5.1 -- 5.4 2022-08-17 12:45:00
2 2022-10-10 12:00:00 Temperatura 7.2 del 10-10-2022 09:00, Menor que la Mínima 7.5 10-10-2022 12:00 7.2 -- 7.5 2022-10-10 13:33:00
2 2022-10-20 12:00:00 Temperatura 8.3 del 20-10-2022 09:00, Menor que la Mínima 8.6 20-10-2022 12:00 8.3 -- 8.6 2022-10-20 16:25:00
2 2022-11-07 12:00:00 Temperatura 9.4 del 07-11-2022 09:00, Menor que la Mínima 9.6 07-11-2022 12:00 9.4 -- 9.6 2022-11-07 14:40:00
2 2022-11-21 12:00:00 Temperatura 8.8 del 21-11-2022 06:00, Menor que la Mínima 9.0 21-11-2022 12:00 8.8 -- 9.0 2022-11-21 11:56:00
2 2023-01-25 12:00:00 Temperatura 11.0 del 25-01-2023 06:00, Menor que la Mínima 12.0 25-01-2023 12:00 11.0 -- 12.0 2023-01-25 12:13:00
2 2023-03-11 12:00:00 Temperatura 15.0 del 11-03-2023 06:00, Menor que la Mínima 15.3 11-03-2023 12:00 15.0 -- 15.3 2023-03-11 12:21:00
2 2023-04-11 12:00:00 Temperatura 12.4 del 11-04-2023 09:00, Menor que la Mínima 12.5 11-04-2023 12:00 12.4 -- 12.5 2023-04-11 11:47:00
2 2023-11-12 12:00:00 Temperatura 6.4 del 12-11-2023 03:00, Menor que la Mínima 6.5 12-11-2023 12:00 6.4 -- 6.5 2023-11-12 11:50:00
Errores del Nivel 28
Informe generado el 23-02-2024 09:06
Requerimiento: RE6001